sensor_id;sensor_type;location;lat;lon;timestamp;pressure;altitude;pressure_sealevel;temperature
70123;BMP280;57489;37.404;24.920;2023-12-20T00:03:37;100696.88;;;18.55
70123;BMP280;57489;37.404;24.920;2023-12-20T00:08:41;100696.72;;;18.52
70123;BMP280;57489;37.404;24.920;2023-12-20T00:13:43;100691.16;;;18.48
70123;BMP280;57489;37.404;24.920;2023-12-20T00:18:45;100684.56;;;18.46
70123;BMP280;57489;37.404;24.920;2023-12-20T00:23:49;100685.66;;;18.45
70123;BMP280;57489;37.404;24.920;2023-12-20T00:28:51;100679.09;;;18.42
70123;BMP280;57489;37.404;24.920;2023-12-20T00:33:54;100671.66;;;18.39
70123;BMP280;57489;37.404;24.920;2023-12-20T00:39:00;100667.75;;;18.37
70123;BMP280;57489;37.404;24.920;2023-12-20T00:44:03;100672.09;;;18.32
70123;BMP280;57489;37.404;24.920;2023-12-20T00:49:05;100666.56;;;18.29
70123;BMP280;57489;37.404;24.920;2023-12-20T00:54:09;100659.69;;;18.28
70123;BMP280;57489;37.404;24.920;2023-12-20T00:59:11;100658.19;;;18.22
70123;BMP280;57489;37.404;24.920;2023-12-20T01:04:13;100660.25;;;18.25
70123;BMP280;57489;37.404;24.920;2023-12-20T01:09:17;100657.66;;;18.20
70123;BMP280;57489;37.404;24.920;2023-12-20T01:14:20;100644.72;;;18.18
70123;BMP280;57489;37.404;24.920;2023-12-20T01:19:22;100646.88;;;18.16
70123;BMP280;57489;37.404;24.920;2023-12-20T01:24:29;100639.69;;;18.17
70123;BMP280;57489;37.404;24.920;2023-12-20T01:29:31;100633.09;;;18.14
70123;BMP280;57489;37.404;24.920;2023-12-20T01:34:33;100620.91;;;18.13
70123;BMP280;57489;37.404;24.920;2023-12-20T01:39:38;100618.25;;;18.13
70123;BMP280;57489;37.404;24.920;2023-12-20T01:44:40;100609.78;;;18.11
70123;BMP280;57489;37.404;24.920;2023-12-20T01:49:42;100597.81;;;18.14
70123;BMP280;57489;37.404;24.920;2023-12-20T01:54:47;100594.91;;;18.10
70123;BMP280;57489;37.404;24.920;2023-12-20T01:59:49;100586.75;;;18.06
70123;BMP280;57489;37.404;24.920;2023-12-20T02:04:52;100579.31;;;18.09
70123;BMP280;57489;37.404;24.920;2023-12-20T02:09:55;100573.00;;;18.04
70123;BMP280;57489;37.404;24.920;2023-12-20T02:14:58;100570.63;;;18.03
70123;BMP280;57489;37.404;24.920;2023-12-20T02:20:00;100568.78;;;18.03
70123;BMP280;57489;37.404;24.920;2023-12-20T02:25:05;100574.66;;;18.00
70123;BMP280;57489;37.404;24.920;2023-12-20T02:30:08;100555.59;;;17.98
70123;BMP280;57489;37.404;24.920;2023-12-20T02:35:10;100559.31;;;17.97
70123;BMP280;57489;37.404;24.920;2023-12-20T02:40:14;100548.22;;;17.95
70123;BMP280;57489;37.404;24.920;2023-12-20T02:45:16;100555.09;;;17.96
70123;BMP280;57489;37.404;24.920;2023-12-20T02:50:18;100555.09;;;17.96
70123;BMP280;57489;37.404;24.920;2023-12-20T02:55:22;100554.63;;;17.94
70123;BMP280;57489;37.404;24.920;2023-12-20T03:00:24;100548.31;;;17.90
70123;BMP280;57489;37.404;24.920;2023-12-20T03:05:26;100547.22;;;17.91
70123;BMP280;57489;37.404;24.920;2023-12-20T03:10:30;100541.44;;;17.89
70123;BMP280;57489;37.404;24.920;2023-12-20T03:15:32;100536.13;;;17.89
70123;BMP280;57489;37.404;24.920;2023-12-20T03:20:35;100538.28;;;17.87
70123;BMP280;57489;37.404;24.920;2023-12-20T03:25:38;100538.28;;;17.87
70123;BMP280;57489;37.404;24.920;2023-12-20T03:30:41;100532.47;;;17.85
70123;BMP280;57489;37.404;24.920;2023-12-20T03:35:43;100528.25;;;17.84
70123;BMP280;57489;37.404;24.920;2023-12-20T03:40:47;100524.00;;;17.83
70123;BMP280;57489;37.404;24.920;2023-12-20T03:45:49;100523.50;;;17.81
70123;BMP280;57489;37.404;24.920;2023-12-20T03:50:51;100515.09;;;17.79
70123;BMP280;57489;37.404;24.920;2023-12-20T03:55:55;100511.34;;;17.80
70123;BMP280;57489;37.404;24.920;2023-12-20T04:00:57;100519.59;;;17.78
70123;BMP280;57489;37.404;24.920;2023-12-20T04:05:59;100517.22;;;17.77
70123;BMP280;57489;37.404;24.920;2023-12-20T04:11:03;100514.09;;;17.75
70123;BMP280;57489;37.404;24.920;2023-12-20T04:16:05;100512.50;;;17.74
70123;BMP280;57489;37.404;24.920;2023-12-20T04:21:08;100514.09;;;17.75
70123;BMP280;57489;37.404;24.920;2023-12-20T04:26:12;100515.97;;;17.74
70123;BMP280;57489;37.404;24.920;2023-12-20T04:31:14;100514.38;;;17.73
70123;BMP280;57489;37.404;24.920;2023-12-20T04:36:16;100518.41;;;17.71
70123;BMP280;57489;37.404;24.920;2023-12-20T04:41:20;100516.25;;;17.73
70123;BMP280;57489;37.404;24.920;2023-12-20T04:46:22;100510.44;;;17.71
70123;BMP280;57489;37.404;24.920;2023-12-20T04:51:24;100515.25;;;17.69
70123;BMP280;57489;37.404;24.920;2023-12-20T04:56:28;100510.44;;;17.71
70123;BMP280;57489;37.404;24.920;2023-12-20T05:01:30;100518.22;;;17.67
70123;BMP280;57489;37.404;24.920;2023-12-20T05:06:32;100514.28;;;17.65
70123;BMP280;57489;37.404;24.920;2023-12-20T05:11:36;100519.59;;;17.65
70123;BMP280;57489;37.404;24.920;2023-12-20T05:16:38;100530.22;;;17.65
70123;BMP280;57489;37.404;24.920;2023-12-20T05:21:40;100525.69;;;17.65
70123;BMP280;57489;37.404;24.920;2023-12-20T05:26:44;100525.50;;;17.89
70123;BMP280;57489;37.404;24.920;2023-12-20T05:31:46;100520.69;;;18.05
70123;BMP280;57489;37.404;24.920;2023-12-20T05:36:49;100515.25;;;18.10
70123;BMP280;57489;37.404;24.920;2023-12-20T05:41:52;100514.88;;;18.17
70123;BMP280;57489;37.404;24.920;2023-12-20T05:46:55;100517.25;;;18.18
70123;BMP280;57489;37.404;24.920;2023-12-20T05:51:57;100512.41;;;18.20
70123;BMP280;57489;37.404;24.920;2023-12-20T05:57:01;100515.47;;;18.00
70123;BMP280;57489;37.404;24.920;2023-12-20T06:02:03;100516.66;;;17.94
70123;BMP280;57489;37.404;24.920;2023-12-20T06:07:06;100510.94;;;17.87
70123;BMP280;57489;37.404;24.920;2023-12-20T06:12:09;100509.94;;;17.83
70123;BMP280;57489;37.404;24.920;2023-12-20T06:17:12;100519.78;;;17.82
70123;BMP280;57489;37.404;24.920;2023-12-20T06:22:14;100519.88;;;17.77
70123;BMP280;57489;37.404;24.920;2023-12-20T06:27:18;100522.34;;;17.73
70123;BMP280;57489;37.404;24.920;2023-12-20T06:32:20;100524.81;;;17.70
70123;BMP280;57489;37.404;24.920;2023-12-20T06:37:24;100522.16;;;17.70
70123;BMP280;57489;37.404;24.920;2023-12-20T06:42:27;100523.22;;;17.69
70123;BMP280;57489;37.404;24.920;2023-12-20T06:47:30;100523.22;;;17.69
70123;BMP280;57489;37.404;24.920;2023-12-20T06:52:32;100525.28;;;17.86
70123;BMP280;57489;37.404;24.920;2023-12-20T06:57:36;100527.88;;;18.04
70123;BMP280;57489;37.404;24.920;2023-12-20T07:02:38;100516.91;;;18.20
70123;BMP280;57489;37.404;24.920;2023-12-20T07:07:40;100522.44;;;18.37
70123;BMP280;57489;37.404;24.920;2023-12-20T07:12:44;100527.03;;;18.45
70123;BMP280;57489;37.404;24.920;2023-12-20T07:17:46;100532.75;;;18.52
70123;BMP280;57489;37.404;24.920;2023-12-20T07:22:48;100528.59;;;18.46
70123;BMP280;57489;37.404;24.920;2023-12-20T07:27:52;100525.72;;;18.56
70123;BMP280;57489;37.404;24.920;2023-12-20T07:32:55;100518.31;;;18.67
70123;BMP280;57489;37.404;24.920;2023-12-20T07:37:57;100524.16;;;18.78
70123;BMP280;57489;37.404;24.920;2023-12-20T07:43:00;100517.34;;;18.85
70123;BMP280;57489;37.404;24.920;2023-12-20T07:48:03;100503.63;;;18.92
70123;BMP280;57489;37.404;24.920;2023-12-20T07:53:06;100510.31;;;19.03
70123;BMP280;57489;37.404;24.920;2023-12-20T07:58:10;100508.28;;;19.09
70123;BMP280;57489;37.404;24.920;2023-12-20T08:03:12;100504.91;;;19.17
70123;BMP280;57489;37.404;24.920;2023-12-20T08:08:14;100500.09;;;19.28
70123;BMP280;57489;37.404;24.920;2023-12-20T08:13:18;100503.59;;;19.37
70123;BMP280;57489;37.404;24.920;2023-12-20T08:18:20;100506.91;;;19.43
70123;BMP280;57489;37.404;24.920;2023-12-20T08:23:22;100501.16;;;19.49
70123;BMP280;57489;37.404;24.920;2023-12-20T08:28:26;100499.91;;;19.55
70123;BMP280;57489;37.404;24.920;2023-12-20T08:33:28;100488.31;;;19.51
70123;BMP280;57489;37.404;24.920;2023-12-20T08:38:31;100469.06;;;19.54
70123;BMP280;57489;37.404;24.920;2023-12-20T08:43:36;100461.44;;;19.61
70123;BMP280;57489;37.404;24.920;2023-12-20T08:48:40;100454.69;;;19.64
70123;BMP280;57489;37.404;24.920;2023-12-20T08:53:43;100449.09;;;19.74
70123;BMP280;57489;37.404;24.920;2023-12-20T08:58:49;100449.88;;;19.75
70123;BMP280;57489;37.404;24.920;2023-12-20T09:03:51;100433.25;;;19.78
70123;BMP280;57489;37.404;24.920;2023-12-20T09:08:54;100435.81;;;19.83
70123;BMP280;57489;37.404;24.920;2023-12-20T09:13:57;100427.03;;;19.91
70123;BMP280;57489;37.404;24.920;2023-12-20T09:19:00;100420.00;;;19.95
70123;BMP280;57489;37.404;24.920;2023-12-20T09:24:02;100403.38;;;19.98
70123;BMP280;57489;37.404;24.920;2023-12-20T09:29:06;100408.09;;;20.01
70123;BMP280;57489;37.404;24.920;2023-12-20T09:34:10;100397.28;;;20.06
70123;BMP280;57489;37.404;24.920;2023-12-20T09:39:12;100393.84;;;20.14
70123;BMP280;57489;37.404;24.920;2023-12-20T09:44:16;100383.97;;;20.15
70123;BMP280;57489;37.404;24.920;2023-12-20T09:49:19;100387.56;;;20.10
70123;BMP280;57489;37.404;24.920;2023-12-20T09:54:22;100375.19;;;19.88
70123;BMP280;57489;37.404;24.920;2023-12-20T09:59:26;100370.47;;;19.85
70123;BMP280;57489;37.404;24.920;2023-12-20T10:04:30;100367.66;;;19.73
70123;BMP280;57489;37.404;24.920;2023-12-20T10:09:34;100355.78;;;19.88
70123;BMP280;57489;37.404;24.920;2023-12-20T10:14:38;100337.41;;;20.04
70123;BMP280;57489;37.404;24.920;2023-12-20T10:19:42;100330.19;;;20.13
70123;BMP280;57489;37.404;24.920;2023-12-20T10:24:45;100329.91;;;20.14
70123;BMP280;57489;37.404;24.920;2023-12-20T10:29:49;100326.75;;;20.12
70123;BMP280;57489;37.404;24.920;2023-12-20T10:34:52;100312.63;;;20.21
70123;BMP280;57489;37.404;24.920;2023-12-20T10:39:55;100303.41;;;20.09
70123;BMP280;57489;37.404;24.920;2023-12-20T10:45:00;100302.97;;;19.90
70123;BMP280;57489;37.404;24.920;2023-12-20T10:50:05;100296.69;;;19.86
70123;BMP280;57489;37.404;24.920;2023-12-20T10:55:08;100283.09;;;19.79
70123;BMP280;57489;37.404;24.920;2023-12-20T11:00:14;100280.13;;;19.80
70123;BMP280;57489;37.404;24.920;2023-12-20T11:05:25;100268.19;;;19.95
70123;BMP280;57489;37.404;24.920;2023-12-20T11:10:35;100263.94;;;20.03
70123;BMP280;57489;37.404;24.920;2023-12-20T11:15:42;100253.78;;;19.79
70123;BMP280;57489;37.404;24.920;2023-12-20T11:20:45;100251.59;;;19.63
70123;BMP280;57489;37.404;24.920;2023-12-20T11:25:48;100246.00;;;19.56
70123;BMP280;57489;37.404;24.920;2023-12-20T11:30:55;100231.88;;;19.47
70123;BMP280;57489;37.404;24.920;2023-12-20T11:35:58;100229.69;;;19.41
70123;BMP280;57489;37.404;24.920;2023-12-20T11:41:01;100210.59;;;19.30
70123;BMP280;57489;37.404;24.920;2023-12-20T11:46:06;100199.47;;;19.28
70123;BMP280;57489;37.404;24.920;2023-12-20T11:51:10;100186.50;;;19.18
70123;BMP280;57489;37.404;24.920;2023-12-20T11:56:12;100172.56;;;19.21
70123;BMP280;57489;37.404;24.920;2023-12-20T12:01:16;100153.97;;;19.21
70123;BMP280;57489;37.404;24.920;2023-12-20T12:06:18;100144.53;;;19.15
70123;BMP280;57489;37.404;24.920;2023-12-20T12:11:21;100142.03;;;19.09
70123;BMP280;57489;37.404;24.920;2023-12-20T12:16:25;100139.25;;;19.06
70123;BMP280;57489;37.404;24.920;2023-12-20T12:21:27;100148.00;;;19.06
70123;BMP280;57489;37.404;24.920;2023-12-20T12:26:30;100140.16;;;19.19
70123;BMP280;57489;37.404;24.920;2023-12-20T12:31:34;100135.47;;;19.07
70123;BMP280;57489;37.404;24.920;2023-12-20T12:36:36;100125.94;;;19.15
70123;BMP280;57489;37.404;24.920;2023-12-20T12:41:39;100123.13;;;19.20
70123;BMP280;57489;37.404;24.920;2023-12-20T12:46:44;100133.31;;;19.35
70123;BMP280;57489;37.404;24.920;2023-12-20T12:51:46;100115.28;;;19.32
70123;BMP280;57489;37.404;24.920;2023-12-20T12:56:48;100102.56;;;19.46
70123;BMP280;57489;37.404;24.920;2023-12-20T13:01:52;100105.88;;;19.43
70123;BMP280;57489;37.404;24.920;2023-12-20T13:06:54;100105.41;;;19.41
70123;BMP280;57489;37.404;24.920;2023-12-20T13:11:58;100119.84;;;19.40
70123;BMP280;57489;37.404;24.920;2023-12-20T13:17:02;100108.53;;;19.43
70123;BMP280;57489;37.404;24.920;2023-12-20T13:22:04;100095.56;;;19.42
70123;BMP280;57489;37.404;24.920;2023-12-20T13:27:06;100085.97;;;19.67
70123;BMP280;57489;37.404;24.920;2023-12-20T13:32:10;100083.81;;;20.19
70123;BMP280;57489;37.404;24.920;2023-12-20T13:37:13;100076.34;;;20.33
70123;BMP280;57489;37.404;24.920;2023-12-20T13:42:15;100076.66;;;20.40
70123;BMP280;57489;37.404;24.920;2023-12-20T13:47:19;100076.78;;;20.44
70123;BMP280;57489;37.404;24.920;2023-12-20T13:52:21;100073.03;;;20.45
70123;BMP280;57489;37.404;24.920;2023-12-20T13:57:24;100071.09;;;20.46
70123;BMP280;57489;37.404;24.920;2023-12-20T14:02:27;100075.47;;;20.50
70123;BMP280;57489;37.404;24.920;2023-12-20T14:07:30;100066.50;;;20.55
70123;BMP280;57489;37.404;24.920;2023-12-20T14:12:32;100059.09;;;20.60
70123;BMP280;57489;37.404;24.920;2023-12-20T14:17:38;100060.19;;;20.59
70123;BMP280;57489;37.404;24.920;2023-12-20T14:22:41;100057.66;;;20.63
70123;BMP280;57489;37.404;24.920;2023-12-20T14:27:44;100060.78;;;20.65
70123;BMP280;57489;37.404;24.920;2023-12-20T14:32:49;100060.88;;;20.56
70123;BMP280;57489;37.404;24.920;2023-12-20T14:37:51;100064.50;;;20.52
70123;BMP280;57489;37.404;24.920;2023-12-20T14:42:53;100061.06;;;20.51
70123;BMP280;57489;37.404;24.920;2023-12-20T14:47:57;100054.50;;;20.49
70123;BMP280;57489;37.404;24.920;2023-12-20T14:52:59;100061.84;;;20.52
70123;BMP280;57489;37.404;24.920;2023-12-20T14:58:02;100056.69;;;20.47
70123;BMP280;57489;37.404;24.920;2023-12-20T15:03:05;100053.88;;;20.43
70123;BMP280;57489;37.404;24.920;2023-12-20T15:08:08;100043.22;;;20.43
70123;BMP280;57489;37.404;24.920;2023-12-20T15:13:11;100050.13;;;20.44
70123;BMP280;57489;37.404;24.920;2023-12-20T15:18:15;100046.56;;;20.40
70123;BMP280;57489;37.404;24.920;2023-12-20T15:23:17;100048.56;;;20.43
70123;BMP280;57489;37.404;24.920;2023-12-20T15:28:20;100044.03;;;20.43
70123;BMP280;57489;37.404;24.920;2023-12-20T15:33:24;100035.03;;;20.48
70123;BMP280;57489;37.404;24.920;2023-12-20T15:38:27;100037.69;;;20.48
70123;BMP280;57489;37.404;24.920;2023-12-20T15:43:29;100039.72;;;20.51
70123;BMP280;57489;37.404;24.920;2023-12-20T15:48:32;100042.59;;;20.46
70123;BMP280;57489;37.404;24.920;2023-12-20T15:53:35;100036.63;;;20.49
70123;BMP280;57489;37.404;24.920;2023-12-20T15:58:38;100038.81;;;20.47
70123;BMP280;57489;37.404;24.920;2023-12-20T16:03:41;100042.25;;;20.48
70123;BMP280;57489;37.404;24.920;2023-12-20T16:08:44;100034.66;;;20.37
70123;BMP280;57489;37.404;24.920;2023-12-20T16:13:46;100031.69;;;20.39
70123;BMP280;57489;37.404;24.920;2023-12-20T16:18:51;100042.25;;;20.48
70123;BMP280;57489;37.404;24.920;2023-12-20T16:23:53;100012.84;;;20.44
70123;BMP280;57489;37.404;24.920;2023-12-20T16:28:55;99983.03;;;20.42
70123;BMP280;57489;37.404;24.920;2023-12-20T16:33:59;99993.41;;;20.43
70123;BMP280;57489;37.404;24.920;2023-12-20T16:39:01;99973.63;;;20.45
70123;BMP280;57489;37.404;24.920;2023-12-20T16:44:10;99984.19;;;20.41
70123;BMP280;57489;37.404;24.920;2023-12-20T16:49:14;99990.00;;;20.34
70123;BMP280;57489;37.404;24.920;2023-12-20T16:54:16;99999.03;;;20.42
70123;BMP280;57489;37.404;24.920;2023-12-20T16:59:18;99996.84;;;20.44
70123;BMP280;57489;37.404;24.920;2023-12-20T17:04:22;99994.63;;;20.46
70123;BMP280;57489;37.404;24.920;2023-12-20T17:09:24;99997.19;;;20.55
70123;BMP280;57489;37.404;24.920;2023-12-20T17:14:27;100007.06;;;20.54
70123;BMP280;57489;37.404;24.920;2023-12-20T17:19:31;100017.44;;;20.56
70123;BMP280;57489;37.404;24.920;2023-12-20T17:24:33;100015.84;;;20.76
70123;BMP280;57489;37.404;24.920;2023-12-20T17:29:36;100015.22;;;20.91
70123;BMP280;57489;37.404;24.920;2023-12-20T17:34:40;100015.47;;;20.98
70123;BMP280;57489;37.404;24.920;2023-12-20T17:39:42;99991.75;;;20.96
70123;BMP280;57489;37.404;24.920;2023-12-20T17:44:45;100012.34;;;20.96
70123;BMP280;57489;37.404;24.920;2023-12-20T17:49:48;100023.84;;;21.21
70123;BMP280;57489;37.404;24.920;2023-12-20T17:54:51;100018.84;;;21.07
70123;BMP280;57489;37.404;24.920;2023-12-20T17:59:53;100002.63;;;21.12
70123;BMP280;57489;37.404;24.920;2023-12-20T18:04:57;99999.41;;;21.19
70123;BMP280;57489;37.404;24.920;2023-12-20T18:09:59;99992.03;;;21.16
70123;BMP280;57489;37.404;24.920;2023-12-20T18:15:02;99998.81;;;21.26
70123;BMP280;57489;37.404;24.920;2023-12-20T18:20:07;99989.28;;;21.25
70123;BMP280;57489;37.404;24.920;2023-12-20T18:25:09;99992.16;;;21.19
70123;BMP280;57489;37.404;24.920;2023-12-20T18:30:12;99985.63;;;21.17
70123;BMP280;57489;37.404;24.920;2023-12-20T18:35:15;99988.13;;;21.13
70123;BMP280;57489;37.404;24.920;2023-12-20T18:40:18;99976.69;;;21.13
70123;BMP280;57489;37.404;24.920;2023-12-20T18:45:21;99977.47;;;21.26
70123;BMP280;57489;37.404;24.920;2023-12-20T18:50:25;99973.03;;;21.17
70123;BMP280;57489;37.404;24.920;2023-12-20T18:55:27;99969.59;;;21.17
70123;BMP280;57489;37.404;24.920;2023-12-20T19:00:29;99966.53;;;20.94
70123;BMP280;57489;37.404;24.920;2023-12-20T19:05:33;99967.16;;;20.66
70123;BMP280;57489;37.404;24.920;2023-12-20T19:10:35;99978.56;;;20.67
70123;BMP280;57489;37.404;24.920;2023-12-20T19:15:38;99973.75;;;20.81
70123;BMP280;57489;37.404;24.920;2023-12-20T19:20:42;99974.22;;;20.83
70123;BMP280;57489;37.404;24.920;2023-12-20T19:25:44;99964.66;;;20.82
70123;BMP280;57489;37.404;24.920;2023-12-20T19:30:46;99959.31;;;20.82
70123;BMP280;57489;37.404;24.920;2023-12-20T19:35:50;99956.97;;;20.81
70123;BMP280;57489;37.404;24.920;2023-12-20T19:40:53;99965.84;;;20.73
70123;BMP280;57489;37.404;24.920;2023-12-20T19:45:55;99964.09;;;20.89
70123;BMP280;57489;37.404;24.920;2023-12-20T19:50:59;99977.78;;;20.87
70123;BMP280;57489;37.404;24.920;2023-12-20T19:56:01;99968.13;;;20.95
70123;BMP280;57489;37.404;24.920;2023-12-20T20:01:04;99971.88;;;20.94
70123;BMP280;57489;37.404;24.920;2023-12-20T20:06:08;99974.53;;;20.94
70123;BMP280;57489;37.404;24.920;2023-12-20T20:11:11;99969.69;;;20.96
70123;BMP280;57489;37.404;24.920;2023-12-20T20:16:13;99960.56;;;20.97
70123;BMP280;57489;37.404;24.920;2023-12-20T20:21:17;99958.34;;;20.99
70123;BMP280;57489;37.404;24.920;2023-12-20T20:26:20;99963.22;;;20.97
70123;BMP280;57489;37.404;24.920;2023-12-20T20:31:22;99949.25;;;21.00
70123;BMP280;57489;37.404;24.920;2023-12-20T20:36:26;99930.78;;;20.95
70123;BMP280;57489;37.404;24.920;2023-12-20T20:41:28;99912.56;;;20.97
70123;BMP280;57489;37.404;24.920;2023-12-20T20:46:31;99915.66;;;20.99
70123;BMP280;57489;37.404;24.920;2023-12-20T20:51:35;99927.75;;;20.96
70123;BMP280;57489;37.404;24.920;2023-12-20T20:56:37;99926.31;;;20.99
70123;BMP280;57489;37.404;24.920;2023-12-20T21:01:40;99922.31;;;20.93
70123;BMP280;57489;37.404;24.920;2023-12-20T21:06:45;99930.19;;;21.02
70123;BMP280;57489;37.404;24.920;2023-12-20T21:11:47;99950.03;;;20.67
70123;BMP280;57489;37.404;24.920;2023-12-20T21:16:50;99959.09;;;20.54
70123;BMP280;57489;37.404;24.920;2023-12-20T21:21:54;99942.19;;;20.50
70123;BMP280;57489;37.404;24.920;2023-12-20T21:26:56;99938.34;;;20.27
70123;BMP280;57489;37.404;24.920;2023-12-20T21:31:58;99924.16;;;20.35
70123;BMP280;57489;37.404;24.920;2023-12-20T21:37:02;99923.94;;;20.28
70123;BMP280;57489;37.404;24.920;2023-12-20T21:42:06;99924.47;;;20.33
70123;BMP280;57489;37.404;24.920;2023-12-20T21:47:09;99910.66;;;20.19
70123;BMP280;57489;37.404;24.920;2023-12-20T21:52:13;99910.41;;;20.12
70123;BMP280;57489;37.404;24.920;2023-12-20T21:57:17;99908.09;;;20.10
70123;BMP280;57489;37.404;24.920;2023-12-20T22:02:19;99904.72;;;20.01
70123;BMP280;57489;37.404;24.920;2023-12-20T22:07:23;99897.03;;;20.00
70123;BMP280;57489;37.404;24.920;2023-12-20T22:12:25;99898.13;;;19.99
70123;BMP280;57489;37.404;24.920;2023-12-20T22:17:27;99899.38;;;20.01
70123;BMP280;57489;37.404;24.920;2023-12-20T22:22:31;99888.91;;;19.96
70123;BMP280;57489;37.404;24.920;2023-12-20T22:27:33;99884.03;;;19.98
70123;BMP280;57489;37.404;24.920;2023-12-20T22:32:35;99885.16;;;19.97
70123;BMP280;57489;37.404;24.920;2023-12-20T22:37:40;99873.56;;;20.14
70123;BMP280;57489;37.404;24.920;2023-12-20T22:42:44;99865.63;;;19.93
70123;BMP280;57489;37.404;24.920;2023-12-20T22:47:47;99852.34;;;20.05
70123;BMP280;57489;37.404;24.920;2023-12-20T22:52:50;99849.22;;;20.03
70123;BMP280;57489;37.404;24.920;2023-12-20T22:57:53;99828.31;;;19.72
70123;BMP280;57489;37.404;24.920;2023-12-20T23:02:55;99825.34;;;19.53
70123;BMP280;57489;37.404;24.920;2023-12-20T23:07:59;99808.81;;;19.47
70123;BMP280;57489;37.404;24.920;2023-12-20T23:13:01;99801.53;;;19.35
70123;BMP280;57489;37.404;24.920;2023-12-20T23:18:04;99782.97;;;19.27
70123;BMP280;57489;37.404;24.920;2023-12-20T23:23:07;99766.59;;;19.16
70123;BMP280;57489;37.404;24.920;2023-12-20T23:28:10;99763.16;;;19.16
70123;BMP280;57489;37.404;24.920;2023-12-20T23:33:12;99750.53;;;19.13
70123;BMP280;57489;37.404;24.920;2023-12-20T23:38:17;99737.72;;;19.06
70123;BMP280;57489;37.404;24.920;2023-12-20T23:43:19;99740.56;;;19.01
70123;BMP280;57489;37.404;24.920;2023-12-20T23:48:22;99730.91;;;18.96
70123;BMP280;57489;37.404;24.920;2023-12-20T23:53:26;99719.81;;;18.94
70123;BMP280;57489;37.404;24.920;2023-12-20T23:58:28;99713.59;;;18.90
